createdAt,value
2018-03-24T00:01:14.633Z,996.68
2018-03-24T00:02:14.682Z,996.62
2018-03-24T00:04:07.680Z,996.65
2018-03-24T00:05:07.722Z,996.65
2018-03-24T00:07:00.699Z,996.63
2018-03-24T00:08:00.754Z,996.60
2018-03-24T00:09:53.762Z,996.59
2018-03-24T00:10:53.794Z,996.59
2018-03-24T00:12:46.794Z,996.55
2018-03-24T00:13:46.836Z,996.50
2018-03-24T00:15:39.814Z,996.51
2018-03-24T00:16:39.866Z,996.53
2018-03-24T00:18:32.866Z,996.54
2018-03-24T00:19:32.904Z,996.58
2018-03-24T00:21:25.885Z,996.56
2018-03-24T00:22:25.940Z,996.53
2018-03-24T00:24:18.961Z,996.53
2018-03-24T00:25:18.995Z,996.51
2018-03-24T00:27:11.990Z,996.56
2018-03-24T00:28:12.056Z,996.53
2018-03-24T00:30:05.053Z,996.55
2018-03-24T00:31:05.090Z,996.48
2018-03-24T00:32:58.072Z,996.47
2018-03-24T00:33:58.127Z,996.46
2018-03-24T00:35:51.125Z,996.46
2018-03-24T00:36:51.165Z,996.44
2018-03-24T00:38:44.160Z,996.44
2018-03-24T00:39:44.205Z,996.43
2018-03-24T00:41:37.197Z,996.43
2018-03-24T00:42:37.234Z,996.43
2018-03-24T00:44:30.221Z,996.46
2018-03-24T00:45:30.280Z,996.41
2018-03-24T00:47:23.283Z,996.43
2018-03-24T00:48:23.320Z,996.42
2018-03-24T00:50:16.331Z,996.44
2018-03-24T00:51:16.363Z,996.41
2018-03-24T00:53:09.337Z,996.41
2018-03-24T00:54:09.397Z,996.37
2018-03-24T00:56:02.393Z,996.37
2018-03-24T00:57:02.427Z,996.37
2018-03-24T00:58:55.404Z,996.40
2018-03-24T00:59:55.462Z,996.37
2018-03-24T01:01:48.462Z,996.36
2018-03-24T01:02:48.499Z,996.36
2018-03-24T01:04:41.480Z,996.36
2018-03-24T01:05:41.540Z,996.39
2018-03-24T01:07:34.542Z,996.31
2018-03-24T01:08:34.575Z,996.36
2018-03-24T01:10:27.553Z,996.33
2018-03-24T01:11:27.611Z,996.33
2018-03-24T01:13:20.614Z,996.32
2018-03-24T01:14:20.650Z,996.32
2018-03-24T01:16:13.670Z,996.32
2018-03-24T01:17:13.686Z,996.33
2018-03-24T01:19:06.665Z,996.32
2018-03-24T01:20:06.721Z,996.27
2018-03-24T01:21:59.722Z,996.29
2018-03-24T01:22:59.756Z,996.31
2018-03-24T01:24:52.736Z,996.31
2018-03-24T01:25:52.792Z,996.32
2018-03-24T01:27:45.790Z,996.28
2018-03-24T01:28:45.823Z,996.24
2018-03-24T01:30:38.815Z,996.21
2018-03-24T01:31:38.874Z,996.22
2018-03-24T01:33:31.899Z,996.19
2018-03-24T01:34:31.939Z,996.17
2018-03-24T01:36:24.922Z,996.12
2018-03-24T01:37:24.973Z,996.16
2018-03-24T01:39:17.976Z,996.16
2018-03-24T01:40:18.017Z,996.18
2018-03-24T01:42:11.000Z,996.15
2018-03-24T01:43:11.052Z,996.17
2018-03-24T01:45:04.052Z,996.17
2018-03-24T01:46:04.088Z,996.17
2018-03-24T01:47:57.084Z,996.17
2018-03-24T01:48:57.130Z,996.20
2018-03-24T01:50:50.100Z,996.19
2018-03-24T01:51:50.155Z,996.21
2018-03-24T01:53:43.155Z,996.17
2018-03-24T01:54:43.190Z,996.21
2018-03-24T01:56:36.174Z,996.19
2018-03-24T01:57:36.230Z,996.23
2018-03-24T01:59:29.233Z,996.20
2018-03-24T02:00:29.271Z,996.20
2018-03-24T02:02:22.265Z,996.18
2018-03-24T02:03:22.304Z,996.24
2018-03-24T02:05:15.303Z,996.22
2018-03-24T02:06:15.339Z,996.22
2018-03-24T02:08:08.318Z,996.18
2018-03-24T02:09:08.374Z,996.19
2018-03-24T02:11:01.385Z,996.22
2018-03-24T02:12:01.411Z,996.19
2018-03-24T02:13:54.402Z,996.17
2018-03-24T02:14:54.458Z,996.18
2018-03-24T02:16:47.457Z,996.18
2018-03-24T02:17:47.492Z,996.17
2018-03-24T02:19:40.487Z,996.16
2018-03-24T02:20:40.525Z,996.17
2018-03-24T02:22:33.507Z,996.13
2018-03-24T02:23:33.559Z,996.11
2018-03-24T02:25:26.560Z,996.13
2018-03-24T02:26:26.595Z,996.10
2018-03-24T02:28:19.577Z,996.11
2018-03-24T02:29:19.636Z,996.10
2018-03-24T02:31:12.634Z,996.10
2018-03-24T02:32:12.666Z,996.09
2018-03-24T02:34:05.674Z,996.04
2018-03-24T02:35:05.731Z,996.01
2018-03-24T02:36:58.727Z,996.03
2018-03-24T02:37:58.763Z,996.04
2018-03-24T02:39:51.762Z,996.07
2018-03-24T02:40:51.795Z,995.98
2018-03-24T02:42:44.780Z,996.03
2018-03-24T02:43:44.832Z,995.99
2018-03-24T02:45:37.831Z,996.02
2018-03-24T02:46:37.867Z,996.01
2018-03-24T02:48:30.847Z,996.00
2018-03-24T02:49:30.899Z,996.00
2018-03-24T02:51:23.910Z,996.08
2018-03-24T02:52:23.935Z,996.01
2018-03-24T02:54:16.913Z,996.03
2018-03-24T02:55:16.972Z,996.05
2018-03-24T02:57:09.970Z,996.02
2018-03-24T02:58:10.007Z,996.04
2018-03-24T03:00:02.991Z,996.06
2018-03-24T03:01:03.041Z,996.06
2018-03-24T03:02:56.047Z,996.01
2018-03-24T03:03:56.084Z,996.01
2018-03-24T03:05:49.061Z,996.05
2018-03-24T03:06:49.115Z,996.01
2018-03-24T03:08:42.124Z,996.00
2018-03-24T03:09:42.153Z,996.02
2018-03-24T03:11:35.157Z,996.00
2018-03-24T03:12:35.194Z,995.97
2018-03-24T03:14:28.171Z,995.99
2018-03-24T03:15:28.226Z,996.01
2018-03-24T03:17:21.224Z,996.00
2018-03-24T03:18:21.261Z,996.03
2018-03-24T03:20:14.755Z,996.02
2018-03-24T03:21:14.804Z,996.03
2018-03-24T03:23:07.807Z,996.03
2018-03-24T03:24:07.837Z,996.06
2018-03-24T03:26:00.824Z,996.08
2018-03-24T03:27:00.874Z,996.09
2018-03-24T03:28:53.873Z,996.08
2018-03-24T03:29:53.909Z,996.10
2018-03-24T03:31:46.892Z,996.08
2018-03-24T03:32:46.942Z,996.09
2018-03-24T03:34:39.943Z,996.10
2018-03-24T03:35:39.978Z,996.09
2018-03-24T03:37:32.978Z,996.12
2018-03-24T03:38:33.013Z,996.11
2018-03-24T03:40:25.992Z,996.10
2018-03-24T03:41:26.049Z,996.10
2018-03-24T03:43:19.051Z,996.13
2018-03-24T03:44:19.086Z,996.16
2018-03-24T03:46:12.065Z,996.15
2018-03-24T03:47:12.120Z,996.15
2018-03-24T03:49:05.119Z,996.18
2018-03-24T03:50:05.157Z,996.14
2018-03-24T03:51:58.139Z,996.17
2018-03-24T03:52:58.187Z,996.12
2018-03-24T03:54:51.197Z,996.13
2018-03-24T03:55:51.221Z,996.11
2018-03-24T03:57:44.235Z,996.12
2018-03-24T03:58:44.261Z,996.16
2018-03-24T04:00:37.240Z,996.15
2018-03-24T04:01:37.294Z,996.15
2018-03-24T04:03:30.291Z,996.15
2018-03-24T04:04:30.340Z,996.14
2018-03-24T04:06:23.310Z,996.14
2018-03-24T04:07:23.363Z,996.15
2018-03-24T04:09:16.365Z,996.19
2018-03-24T04:10:16.396Z,996.18
2018-03-24T04:12:09.372Z,996.18
2018-03-24T04:13:09.436Z,996.21
2018-03-24T04:15:02.422Z,996.21
2018-03-24T04:16:02.459Z,996.23
2018-03-24T04:17:55.441Z,996.27
2018-03-24T04:18:55.492Z,996.23
2018-03-24T04:20:49.016Z,996.25
2018-03-24T04:21:49.045Z,996.26
2018-03-24T04:23:42.016Z,996.22
2018-03-24T04:24:42.072Z,996.23
2018-03-24T04:26:35.081Z,996.19
2018-03-24T04:27:35.110Z,996.21
2018-03-24T04:29:28.107Z,996.23
2018-03-24T04:30:28.142Z,996.25
2018-03-24T04:32:21.118Z,996.22
2018-03-24T04:33:21.173Z,996.24
2018-03-24T04:35:14.177Z,996.25
2018-03-24T04:36:14.212Z,996.25
2018-03-24T04:38:07.191Z,996.31
2018-03-24T04:39:07.247Z,996.31
2018-03-24T04:41:00.246Z,996.26
2018-03-24T04:42:00.281Z,996.26
2018-03-24T04:43:53.260Z,996.25
2018-03-24T04:44:53.315Z,996.23
2018-03-24T04:46:46.321Z,996.25
2018-03-24T04:47:46.357Z,996.25
2018-03-24T04:49:39.338Z,996.24
2018-03-24T04:50:39.395Z,996.29
2018-03-24T04:52:32.400Z,996.28
2018-03-24T04:53:32.435Z,996.32
2018-03-24T04:55:25.411Z,996.24
2018-03-24T04:56:25.467Z,996.27
2018-03-24T04:58:18.466Z,996.22
2018-03-24T04:59:18.500Z,996.24
2018-03-24T05:01:11.496Z,996.20
2018-03-24T05:02:11.532Z,996.18
2018-03-24T05:04:04.513Z,996.17
2018-03-24T05:05:04.603Z,996.21
2018-03-24T05:06:57.561Z,996.24
2018-03-24T05:07:57.598Z,996.25
2018-03-24T05:09:50.582Z,996.24
2018-03-24T05:10:50.635Z,996.26
2018-03-24T05:12:43.636Z,996.26
2018-03-24T05:13:43.671Z,996.29
2018-03-24T05:15:36.661Z,996.28
2018-03-24T05:16:36.707Z,996.24
2018-03-24T05:18:29.705Z,996.27
2018-03-24T05:19:29.796Z,996.31
2018-03-24T05:21:22.715Z,996.35
2018-03-24T05:22:22.770Z,996.32
2018-03-24T05:24:15.772Z,996.38
2018-03-24T05:25:15.806Z,996.38
2018-03-24T05:27:08.788Z,996.39
2018-03-24T05:28:08.836Z,996.38
2018-03-24T05:30:01.832Z,996.41
2018-03-24T05:31:01.863Z,996.39
2018-03-24T05:32:54.886Z,996.39
2018-03-24T05:33:54.902Z,996.39
2018-03-24T05:35:47.880Z,996.41
2018-03-24T05:36:47.934Z,996.40
2018-03-24T05:38:40.929Z,996.39
2018-03-24T05:39:40.962Z,996.38
2018-03-24T05:41:33.996Z,996.43
2018-03-24T05:42:34.018Z,996.45
2018-03-24T05:44:27.098Z,996.45
2018-03-24T05:45:27.073Z,996.43
2018-03-24T05:47:20.011Z,996.46
2018-03-24T05:48:20.064Z,996.47
2018-03-24T05:50:13.059Z,996.53
2018-03-24T05:51:13.097Z,996.55
2018-03-24T05:53:06.076Z,996.54
2018-03-24T05:54:06.124Z,996.52
2018-03-24T05:55:59.122Z,996.56
2018-03-24T05:56:59.155Z,996.60
2018-03-24T05:58:52.133Z,996.57
2018-03-24T05:59:52.196Z,996.63
2018-03-24T06:01:45.192Z,996.59
2018-03-24T06:02:45.221Z,996.64
2018-03-24T06:04:38.202Z,996.64
2018-03-24T06:05:38.251Z,996.64
2018-03-24T06:07:31.243Z,996.61
2018-03-24T06:08:31.280Z,996.59
2018-03-24T06:10:24.280Z,996.62
2018-03-24T06:11:24.316Z,996.61
2018-03-24T06:13:17.285Z,996.66
2018-03-24T06:14:17.340Z,996.63
2018-03-24T06:16:10.336Z,996.62
2018-03-24T06:17:10.368Z,996.70
2018-03-24T06:19:03.346Z,996.70
2018-03-24T06:20:03.451Z,996.69
2018-03-24T06:21:56.392Z,996.74
2018-03-24T06:22:56.429Z,996.71
2018-03-24T06:24:49.415Z,996.76
2018-03-24T06:25:49.472Z,996.83
2018-03-24T06:27:42.465Z,996.81
2018-03-24T06:28:42.500Z,996.79
2018-03-24T06:30:35.480Z,996.82
2018-03-24T06:31:35.546Z,996.82
2018-03-24T06:33:28.525Z,996.85
2018-03-24T06:34:28.560Z,996.83
2018-03-24T06:36:21.542Z,996.86
2018-03-24T06:37:21.594Z,996.84
2018-03-24T06:39:14.611Z,996.89
2018-03-24T06:40:14.623Z,996.93
2018-03-24T06:42:07.621Z,996.94
2018-03-24T06:43:07.655Z,996.94
2018-03-24T06:45:00.632Z,996.97
2018-03-24T06:46:00.687Z,996.96
2018-03-24T06:47:53.687Z,996.93
2018-03-24T06:48:53.720Z,996.94
2018-03-24T06:50:46.705Z,996.87
2018-03-24T06:51:46.767Z,996.92
2018-03-24T06:53:39.773Z,996.88
2018-03-24T06:54:39.817Z,996.91
2018-03-24T06:56:32.785Z,997.01
2018-03-24T06:57:32.841Z,997.03
2018-03-24T06:59:25.847Z,997.06
2018-03-24T07:00:25.879Z,997.06
2018-03-24T07:02:18.864Z,997.19
2018-03-24T07:03:18.914Z,997.19
2018-03-24T07:05:11.914Z,997.15
2018-03-24T07:06:11.952Z,997.15
2018-03-24T07:08:04.932Z,997.20
2018-03-24T07:09:04.988Z,997.17
2018-03-24T07:10:57.993Z,997.19
2018-03-24T07:11:58.025Z,997.19
2018-03-24T07:13:51.006Z,997.51
2018-03-24T07:14:51.062Z,997.59
2018-03-24T07:16:44.061Z,997.85
2018-03-24T07:17:44.099Z,998.05
2018-03-24T07:19:37.102Z,998.30
2018-03-24T07:20:37.142Z,998.37
2018-03-24T07:22:30.123Z,998.55
2018-03-24T07:23:30.186Z,998.67
2018-03-24T07:25:23.187Z,999.18
2018-03-24T07:26:23.225Z,999.48
2018-03-24T07:28:16.230Z,1000.29
2018-03-24T07:29:16.272Z,1000.31
2018-03-24T07:31:09.285Z,999.51
2018-03-24T07:32:09.327Z,999.12
2018-03-24T07:34:02.321Z,998.58
2018-03-24T07:35:02.384Z,998.36
2018-03-24T07:36:55.410Z,998.20
2018-03-24T07:37:55.463Z,998.03
2018-03-24T07:39:48.440Z,998.02
2018-03-24T07:40:48.494Z,997.97
2018-03-24T07:42:41.512Z,997.95
2018-03-24T07:43:41.555Z,997.95
2018-03-24T07:45:34.760Z,997.95
2018-03-24T07:46:34.617Z,997.96
2018-03-24T07:48:27.629Z,997.90
2018-03-24T07:49:27.685Z,997.87
2018-03-24T07:51:20.805Z,997.94
2018-03-24T07:52:20.730Z,997.99
2018-03-24T07:54:13.724Z,997.90
2018-03-24T07:55:13.786Z,997.92
2018-03-24T07:57:06.803Z,997.83
2018-03-24T07:58:06.923Z,997.72
2018-03-24T07:59:59.955Z,997.75
2018-03-24T08:00:59.901Z,997.72
2018-03-24T08:02:52.917Z,997.58
2018-03-24T08:03:53.025Z,997.56
2018-03-24T08:05:45.957Z,997.50
2018-03-24T08:06:46.022Z,997.56
2018-03-24T08:08:39.034Z,997.51
2018-03-24T08:09:39.085Z,997.52
2018-03-24T08:11:32.100Z,997.50
2018-03-24T08:12:32.130Z,997.58
2018-03-24T08:14:25.135Z,997.66
2018-03-24T08:15:25.234Z,997.69
2018-03-24T08:17:18.200Z,997.65
2018-03-24T08:18:18.242Z,997.60
2018-03-24T08:20:11.244Z,997.64
2018-03-24T08:21:11.304Z,997.68
2018-03-24T08:23:04.314Z,997.67
2018-03-24T08:24:04.358Z,997.75
2018-03-24T08:25:57.356Z,997.74
2018-03-24T08:26:57.422Z,997.81
2018-03-24T08:28:50.439Z,997.84
2018-03-24T08:29:50.524Z,997.73
2018-03-24T08:31:43.486Z,997.85
2018-03-24T08:32:43.609Z,997.77
2018-03-24T08:34:36.547Z,997.78
2018-03-24T08:35:36.591Z,997.81
2018-03-24T08:37:29.597Z,997.79
2018-03-24T08:38:29.662Z,997.74
2018-03-24T08:40:22.670Z,997.71
2018-03-24T08:41:22.744Z,997.69
2018-03-24T08:43:15.733Z,997.70
2018-03-24T08:44:15.772Z,997.68
2018-03-24T08:46:08.764Z,997.76
2018-03-24T08:47:08.830Z,997.77
2018-03-24T08:49:01.836Z,997.76
2018-03-24T08:50:01.883Z,997.77
2018-03-24T08:51:54.875Z,997.81
2018-03-24T08:52:55.213Z,997.80
2018-03-24T08:54:47.947Z,997.82
2018-03-24T08:55:47.992Z,997.82
2018-03-24T08:57:40.991Z,997.87
2018-03-24T08:58:41.055Z,997.88
2018-03-24T09:00:34.074Z,997.90
2018-03-24T09:01:34.114Z,997.88
2018-03-24T09:03:27.123Z,997.88
2018-03-24T09:04:27.173Z,997.87
2018-03-24T09:06:20.188Z,997.80
2018-03-24T09:07:20.240Z,997.76
2018-03-24T09:09:13.246Z,997.69
2018-03-24T09:10:13.291Z,997.64
2018-03-24T09:12:06.294Z,997.63
2018-03-24T09:13:06.351Z,997.63
2018-03-24T09:14:59.370Z,997.62
2018-03-24T09:15:59.408Z,997.61
2018-03-24T09:17:52.402Z,997.61
2018-03-24T09:18:52.471Z,997.58
2018-03-24T09:20:45.477Z,997.58
2018-03-24T09:21:45.521Z,997.64
2018-03-24T09:23:38.512Z,997.58
2018-03-24T09:24:38.572Z,997.57
2018-03-24T09:26:31.640Z,997.57
2018-03-24T09:27:31.623Z,997.61
2018-03-24T09:29:24.634Z,997.58
2018-03-24T09:30:24.673Z,997.54
2018-03-24T09:32:17.672Z,997.61
2018-03-24T09:33:17.731Z,997.59
2018-03-24T09:35:10.745Z,997.61
2018-03-24T09:36:10.789Z,997.57
2018-03-24T09:38:03.774Z,997.63
2018-03-24T09:39:03.834Z,997.59
2018-03-24T09:40:56.853Z,997.59
2018-03-24T09:41:56.951Z,997.66
2018-03-24T09:43:49.881Z,997.64
2018-03-24T09:44:49.936Z,997.62
2018-03-24T09:46:42.942Z,997.66
2018-03-24T09:47:42.983Z,997.64
2018-03-24T09:49:35.987Z,997.58
2018-03-24T09:50:36.029Z,997.58
2018-03-24T09:52:29.068Z,997.62
2018-03-24T09:53:29.131Z,997.57
2018-03-24T09:55:22.143Z,997.59
2018-03-24T09:56:22.189Z,997.56
2018-03-24T09:58:15.180Z,997.63
2018-03-24T09:59:15.243Z,997.57
2018-03-24T10:01:08.250Z,997.55
2018-03-24T10:02:08.290Z,997.52
2018-03-24T10:04:01.277Z,997.53
2018-03-24T10:05:01.337Z,997.52
2018-03-24T10:06:54.341Z,997.49
2018-03-24T10:07:54.383Z,997.49
2018-03-24T10:09:47.386Z,997.53
2018-03-24T10:10:47.427Z,997.50
2018-03-24T10:12:40.414Z,997.47
2018-03-24T10:13:40.479Z,997.48
2018-03-24T10:15:33.487Z,997.43
2018-03-24T10:16:33.521Z,997.46
2018-03-24T10:18:27.011Z,997.44
2018-03-24T10:19:27.072Z,997.43
2018-03-24T10:21:20.081Z,997.46
2018-03-24T10:22:20.117Z,997.45
2018-03-24T10:24:13.122Z,997.46
2018-03-24T10:25:13.170Z,997.43
2018-03-24T10:27:06.179Z,997.42
2018-03-24T10:28:06.221Z,997.44
2018-03-24T10:29:59.226Z,997.42
2018-03-24T10:30:59.267Z,997.42
2018-03-24T10:32:52.255Z,997.37
2018-03-24T10:33:52.311Z,997.38
2018-03-24T10:35:45.326Z,997.42
2018-03-24T10:36:45.355Z,997.41
2018-03-24T10:38:38.350Z,997.43
2018-03-24T10:39:38.403Z,997.43
2018-03-24T10:41:31.453Z,997.45
2018-03-24T10:42:31.453Z,997.41
2018-03-24T10:44:24.436Z,997.43
2018-03-24T10:45:24.491Z,997.40
2018-03-24T10:47:17.506Z,997.41
2018-03-24T10:48:17.547Z,997.38
2018-03-24T10:50:10.549Z,997.42
2018-03-24T10:51:10.591Z,997.39
2018-03-24T10:53:03.575Z,997.43
2018-03-24T10:54:03.634Z,997.38
2018-03-24T10:55:56.637Z,997.37
2018-03-24T10:56:56.678Z,997.34
2018-03-24T10:58:49.711Z,997.29
2018-03-24T10:59:49.726Z,997.29
2018-03-24T11:01:42.731Z,997.34
2018-03-24T11:02:42.770Z,997.29
2018-03-24T11:04:35.760Z,997.30
2018-03-24T11:05:35.817Z,997.34
2018-03-24T11:07:28.821Z,997.30
2018-03-24T11:08:28.860Z,997.30
2018-03-24T11:10:21.868Z,997.30
2018-03-24T11:11:21.907Z,997.32
2018-03-24T11:13:14.897Z,997.33
2018-03-24T11:14:14.952Z,997.31
2018-03-24T11:16:07.960Z,997.25
2018-03-24T11:17:07.997Z,997.32
2018-03-24T11:19:00.996Z,997.31
2018-03-24T11:20:01.053Z,997.34
2018-03-24T11:21:54.064Z,997.29
2018-03-24T11:22:54.106Z,997.35
2018-03-24T11:24:47.094Z,997.33
2018-03-24T11:25:47.152Z,997.36
2018-03-24T11:27:40.164Z,997.30
2018-03-24T11:28:40.205Z,997.31
2018-03-24T11:30:33.212Z,997.30
2018-03-24T11:31:33.252Z,997.32
2018-03-24T11:33:26.243Z,997.30
2018-03-24T11:34:26.305Z,997.29
2018-03-24T11:36:19.331Z,997.28
2018-03-24T11:37:19.372Z,997.25
2018-03-24T11:39:12.357Z,997.21
2018-03-24T11:40:12.417Z,997.22
2018-03-24T11:42:05.425Z,997.20
2018-03-24T11:43:05.478Z,997.17
2018-03-24T11:44:58.509Z,997.16
2018-03-24T11:45:58.568Z,997.14
2018-03-24T11:47:51.586Z,997.23
2018-03-24T11:48:51.623Z,997.15
2018-03-24T11:50:44.632Z,997.13
2018-03-24T11:51:44.673Z,997.11
2018-03-24T11:53:37.659Z,997.15
2018-03-24T11:54:37.719Z,997.14
2018-03-24T11:56:30.725Z,997.18
2018-03-24T11:57:30.775Z,997.14
2018-03-24T11:59:23.764Z,997.19
2018-03-24T12:00:23.816Z,997.21
2018-03-24T12:02:16.822Z,997.15
2018-03-24T12:03:16.865Z,997.20
2018-03-24T12:05:09.853Z,997.20
2018-03-24T12:06:09.911Z,997.17
2018-03-24T12:08:02.918Z,997.21
2018-03-24T12:09:02.987Z,997.20
2018-03-24T12:10:55.966Z,997.17
2018-03-24T12:11:56.013Z,997.17
2018-03-24T12:13:48.996Z,997.19
2018-03-24T12:14:49.058Z,997.21
2018-03-24T12:16:42.066Z,997.23
2018-03-24T12:17:42.108Z,997.19
2018-03-24T12:19:35.098Z,997.18
2018-03-24T12:20:35.157Z,997.16
2018-03-24T12:22:28.179Z,997.15
2018-03-24T12:23:28.205Z,997.14
2018-03-24T12:25:21.200Z,997.14
2018-03-24T12:26:21.260Z,997.16
2018-03-24T12:28:14.266Z,997.16
2018-03-24T12:29:14.307Z,997.18
2018-03-24T12:31:07.316Z,997.19
2018-03-24T12:32:07.357Z,997.20
2018-03-24T12:34:00.343Z,997.19
2018-03-24T12:35:00.404Z,997.20
2018-03-24T12:36:53.414Z,997.20
2018-03-24T12:37:53.455Z,997.19
2018-03-24T12:39:46.959Z,997.21
2018-03-24T12:40:47.014Z,997.17
2018-03-24T12:42:40.046Z,997.12
2018-03-24T12:43:40.067Z,997.15
2018-03-24T12:45:33.063Z,997.11
2018-03-24T12:46:33.130Z,997.11
2018-03-24T12:48:26.134Z,997.08
2018-03-24T12:49:26.179Z,997.10
2018-03-24T12:51:19.195Z,997.07
2018-03-24T12:52:19.228Z,997.10
2018-03-24T12:54:12.218Z,997.06
2018-03-24T12:55:12.279Z,997.07
2018-03-24T12:57:05.288Z,997.08
2018-03-24T12:58:05.327Z,997.05
2018-03-24T12:59:58.317Z,997.06
2018-03-24T13:00:58.379Z,997.07
2018-03-24T13:02:51.390Z,997.08
2018-03-24T13:03:51.431Z,997.09
2018-03-24T13:05:44.420Z,997.06
2018-03-24T13:06:44.478Z,997.08
2018-03-24T13:08:37.489Z,997.06
2018-03-24T13:09:37.531Z,996.99
2018-03-24T13:11:30.543Z,997.02
2018-03-24T13:12:30.584Z,996.99
2018-03-24T13:14:23.572Z,996.97
2018-03-24T13:15:23.635Z,997.02
2018-03-24T13:17:16.648Z,997.04
2018-03-24T13:18:16.684Z,997.06
2018-03-24T13:20:09.680Z,997.04
2018-03-24T13:21:09.741Z,996.99
2018-03-24T13:23:02.749Z,997.00
2018-03-24T13:24:02.790Z,997.00
2018-03-24T13:25:55.781Z,997.02
2018-03-24T13:26:55.837Z,997.00
2018-03-24T13:28:48.848Z,997.06
2018-03-24T13:29:48.890Z,997.08
2018-03-24T13:31:41.898Z,997.01
2018-03-24T13:32:41.939Z,997.03
2018-03-24T13:34:34.942Z,996.98
2018-03-24T13:35:35.005Z,996.99
2018-03-24T13:37:28.019Z,997.02
2018-03-24T13:38:28.060Z,997.10
2018-03-24T13:40:21.059Z,997.03
2018-03-24T13:41:21.116Z,997.08
2018-03-24T13:43:14.114Z,997.04
2018-03-24T13:44:14.156Z,997.04
2018-03-24T13:46:07.149Z,997.05
2018-03-24T13:47:07.204Z,997.05
2018-03-24T13:49:00.213Z,997.04
2018-03-24T13:50:00.254Z,997.05
2018-03-24T13:51:53.262Z,997.06
2018-03-24T13:52:53.301Z,997.05
2018-03-24T13:54:46.293Z,997.09
2018-03-24T13:55:46.350Z,997.07
2018-03-24T13:57:39.360Z,997.00
2018-03-24T13:58:39.409Z,997.02
2018-03-24T14:00:32.409Z,997.02
2018-03-24T14:01:32.464Z,996.98
2018-03-24T14:03:25.478Z,996.97
2018-03-24T14:04:25.520Z,996.94
2018-03-24T14:06:18.512Z,996.96
2018-03-24T14:07:18.571Z,996.95
2018-03-24T14:09:11.579Z,996.99
2018-03-24T14:10:11.621Z,996.92
2018-03-24T14:12:04.634Z,996.88
2018-03-24T14:13:04.670Z,996.85
2018-03-24T14:14:57.659Z,996.87
2018-03-24T14:15:57.757Z,996.88
2018-03-24T14:17:50.733Z,996.97
2018-03-24T14:18:50.775Z,996.92
2018-03-24T14:20:43.766Z,996.91
2018-03-24T14:21:43.824Z,996.95
2018-03-24T14:23:36.834Z,996.90
2018-03-24T14:24:36.965Z,996.88
2018-03-24T14:26:29.867Z,996.88
2018-03-24T14:27:29.926Z,996.91
2018-03-24T14:29:22.933Z,996.88
2018-03-24T14:30:22.978Z,996.90
2018-03-24T14:32:15.998Z,996.88
2018-03-24T14:33:16.020Z,996.90
2018-03-24T14:35:09.012Z,996.89
2018-03-24T14:36:09.070Z,996.90
2018-03-24T14:38:02.114Z,996.90
2018-03-24T14:39:02.130Z,996.89
2018-03-24T14:40:55.162Z,996.91
2018-03-24T14:41:55.185Z,996.94
2018-03-24T14:43:48.211Z,996.92
2018-03-24T14:44:48.242Z,996.93
2018-03-24T14:46:41.258Z,996.88
2018-03-24T14:47:41.289Z,996.88
2018-03-24T14:49:34.868Z,996.92
2018-03-24T14:50:34.852Z,996.90
2018-03-24T14:52:27.859Z,996.85
2018-03-24T14:53:27.897Z,996.88
2018-03-24T14:55:20.899Z,996.85
2018-03-24T14:56:20.954Z,996.90
2018-03-24T14:58:13.960Z,996.88
2018-03-24T14:59:14.002Z,996.90
2018-03-24T15:01:06.992Z,996.85
2018-03-24T15:02:07.044Z,996.82
2018-03-24T15:04:00.083Z,996.86
2018-03-24T15:05:00.091Z,996.82
2018-03-24T15:06:53.085Z,996.83
2018-03-24T15:07:53.147Z,996.86
2018-03-24T15:09:46.179Z,996.81
2018-03-24T15:10:46.207Z,996.82
2018-03-24T15:12:39.222Z,996.83
2018-03-24T15:13:39.266Z,996.85
2018-03-24T15:15:32.279Z,996.83
2018-03-24T15:16:32.361Z,996.84
2018-03-24T15:18:25.346Z,996.90
2018-03-24T15:19:25.388Z,996.89
2018-03-24T15:21:18.379Z,996.91
2018-03-24T15:22:18.445Z,996.92
2018-03-24T15:24:11.453Z,996.94
2018-03-24T15:25:11.494Z,996.94
2018-03-24T15:27:04.485Z,996.93
2018-03-24T15:28:04.568Z,996.92
2018-03-24T15:29:57.549Z,996.93
2018-03-24T15:30:57.591Z,996.93
2018-03-24T15:32:50.592Z,996.90
2018-03-24T15:33:50.642Z,996.92
2018-03-24T15:35:43.625Z,996.89
2018-03-24T15:36:43.686Z,996.86
2018-03-24T15:38:36.706Z,996.90
2018-03-24T15:39:36.732Z,996.92
2018-03-24T15:41:29.716Z,996.90
2018-03-24T15:42:29.777Z,996.94
2018-03-24T15:44:22.782Z,996.97
2018-03-24T15:45:22.831Z,996.95
2018-03-24T15:47:16.317Z,996.96
2018-03-24T15:48:16.376Z,996.98
2018-03-24T15:50:09.382Z,997.02
2018-03-24T15:51:09.641Z,997.00
2018-03-24T15:53:02.433Z,996.98
2018-03-24T15:54:02.474Z,996.99
2018-03-24T15:55:55.457Z,996.97
2018-03-24T15:56:55.516Z,997.02
2018-03-24T15:58:48.518Z,997.04
2018-03-24T15:59:48.560Z,997.03
2018-03-24T16:01:41.546Z,997.09
2018-03-24T16:02:41.606Z,997.08
2018-03-24T16:04:34.612Z,997.04
2018-03-24T16:05:34.651Z,997.09
2018-03-24T16:07:27.642Z,997.07
2018-03-24T16:08:27.700Z,997.09
2018-03-24T16:10:20.712Z,997.12
2018-03-24T16:11:20.753Z,997.10
2018-03-24T16:13:13.760Z,997.10
2018-03-24T16:14:13.806Z,997.13
2018-03-24T16:16:06.791Z,997.11
2018-03-24T16:17:06.851Z,997.12
2018-03-24T16:18:59.872Z,997.11
2018-03-24T16:19:59.911Z,997.09
2018-03-24T16:21:52.930Z,997.11
2018-03-24T16:22:52.992Z,997.09
2018-03-24T16:24:46.001Z,997.16
2018-03-24T16:25:46.043Z,997.16
2018-03-24T16:27:39.050Z,997.20
2018-03-24T16:28:39.129Z,997.16
2018-03-24T16:30:32.098Z,997.18
2018-03-24T16:31:32.140Z,997.18
2018-03-24T16:33:25.157Z,997.18
2018-03-24T16:34:25.216Z,997.20
2018-03-24T16:36:18.181Z,997.17
2018-03-24T16:37:18.238Z,997.21
2018-03-24T16:39:11.257Z,997.25
2018-03-24T16:40:11.285Z,997.23
2018-03-24T16:42:04.272Z,997.22
2018-03-24T16:43:04.331Z,997.21
2018-03-24T16:44:57.339Z,997.24
2018-03-24T16:45:57.380Z,997.24
2018-03-24T16:47:50.364Z,997.29
2018-03-24T16:48:50.420Z,997.26
2018-03-24T16:50:43.426Z,997.26
2018-03-24T16:51:43.467Z,997.28
2018-03-24T16:53:36.474Z,997.31
2018-03-24T16:54:36.513Z,997.29
2018-03-24T16:56:29.529Z,997.29
2018-03-24T16:57:29.567Z,997.33
2018-03-24T16:59:22.571Z,997.32
2018-03-24T17:00:22.610Z,997.34
2018-03-24T17:02:15.601Z,997.32
2018-03-24T17:03:15.661Z,997.33
2018-03-24T17:05:08.667Z,997.34
2018-03-24T17:06:08.708Z,997.36
2018-03-24T17:08:01.701Z,997.36
2018-03-24T17:09:01.759Z,997.37
2018-03-24T17:10:54.763Z,997.39
2018-03-24T17:11:54.803Z,997.36
2018-03-24T17:13:47.807Z,997.43
2018-03-24T17:14:47.847Z,997.42
2018-03-24T17:16:40.861Z,997.49
2018-03-24T17:17:40.896Z,997.48
2018-03-24T17:19:33.898Z,997.47
2018-03-24T17:20:33.938Z,997.43
2018-03-24T17:22:26.925Z,997.43
2018-03-24T17:23:26.982Z,997.43
2018-03-24T17:25:19.986Z,997.46
2018-03-24T17:26:20.025Z,997.49
2018-03-24T17:28:13.016Z,997.50
2018-03-24T17:29:13.077Z,997.52
2018-03-24T17:31:06.083Z,997.58
2018-03-24T17:32:06.123Z,997.55
2018-03-24T17:33:59.126Z,997.58
2018-03-24T17:34:59.166Z,997.55
2018-03-24T17:36:52.149Z,997.57
2018-03-24T17:37:52.211Z,997.59
2018-03-24T17:39:45.213Z,997.53
2018-03-24T17:40:45.250Z,997.57
2018-03-24T17:42:38.253Z,997.55
2018-03-24T17:43:38.316Z,997.56
2018-03-24T17:45:31.325Z,997.54
2018-03-24T17:46:31.360Z,997.56
2018-03-24T17:48:24.346Z,997.54
2018-03-24T17:49:24.408Z,997.60
2018-03-24T17:51:17.411Z,997.61
2018-03-24T17:52:17.454Z,997.59
2018-03-24T17:54:10.459Z,997.58
2018-03-24T17:55:10.501Z,997.59
2018-03-24T17:57:03.496Z,997.60
2018-03-24T17:58:03.557Z,997.59
2018-03-24T17:59:56.568Z,997.61